01:22
Airports
Links
Donate
Help keep this website running!
PayPal
Bitcoin
METAR
LFPG 270100Z 36008KT 340V060 CAVOK 02/01 Q1017 NOSIG
Current Weather Conditions at LFPG
VFR 01:00:00 27-04-17
Altimeter:30.03 hg
Temp:2.0°c 36°f
Dew point:1.0°c 34°f
Wind:8 knots, 9.2 mph, 4 m/s, from 360°
Visibility:6.21 statute miles
(CAVOK)
No significant weather changes expected within 2 hours.
Past METAR reports
VFR 00:30:00 27-04-17
Altimeter:30.03 hg
Temp:2.0°c 36°f
Dew point:1.0°c 34°f
Wind:9 knots, 10.4 mph, 5 m/s, from 360°
Visibility:6.21 statute miles
(CAVOK)
No significant weather changes expected within 2 hours.
LFPG 270030Z 36009KT 340V040 CAVOK 02/01 Q1017 NOSIG
VFR 00:00:00 27-04-17
Altimeter:30.03 hg
Temp:3.0°c 37°f
Dew point:1.0°c 34°f
Wind:10 knots, 11.5 mph, 5 m/s, from 350°
Visibility:6.21 statute miles
(CAVOK)
No significant weather changes expected within 2 hours.
LFPG 270000Z 35010KT 340V050 CAVOK 03/01 Q1017 NOSIG
VFR 23:30:00 26-04-17
Altimeter:30.03 hg
Temp:3.0°c 37°f
Dew point:1.0°c 34°f
Wind:8 knots, 9.2 mph, 4 m/s, from 350°
Visibility:6.21 statute miles
(CAVOK)
No significant weather changes expected within 2 hours.
LFPG 262330Z 35008KT 340V040 CAVOK 03/01 Q1017 NOSIG
VFR 23:00:00 26-04-17
Altimeter:30.03 hg
Temp:4.0°c 39°f
Dew point:2.0°c 36°f
Wind:8 knots, 9.2 mph, 4 m/s, from 340°
Visibility:6.21 statute miles
(CAVOK)
No significant weather changes expected within 2 hours.
LFPG 262300Z 34008KT 330V030 CAVOK 04/02 Q1017 NOSIG
VFR 22:30:00 26-04-17
Altimeter:30.03 hg
Temp:4.0°c 39°f
Dew point:2.0°c 36°f
Wind:8 knots, 9.2 mph, 4 m/s,
Variable direction
Visibility:6.21 statute miles
(CAVOK)
No significant weather changes expected within 2 hours.
LFPG 262230Z VRB08KT CAVOK 04/02 Q1017 NOSIG
VFR 22:00:00 26-04-17
Altimeter:30.03 hg
Temp:4.0°c 39°f
Dew point:2.0°c 36°f
Wind:6 knots, 6.9 mph, 3 m/s,
Variable direction
Visibility:6.21 statute miles
6200(BKN) Broken
4000(FEW) A few
No significant weather changes expected within 2 hours.
LFPG 262200Z VRB06KT 9999 FEW040 BKN062 04/02 Q1017 NOSIG
TAF
TAF LFPG 262300Z 2700/2806 35005KT CAVOK PROB30 2703/2705 4000 BR PROB40 TEMPO 2709/2717 SCT040TCU BECMG 2803/2806 BKN006 TX11/2715Z TN01/2704Z
Forecast at LFPG
00:00 27-04-17 to 03:00 28-04-17
NSW
Wind:5 Knots from 350°
Visibility:6.21 statute miles
NSC
PROB 03:00 27-04-17 to 05:00 27-04-17
30% BR
Visibility:2.49 statute miles
TEMPO 09:00 27-04-17 to 17:00 27-04-17
40%
4000SCT Scattered
BECMG 03:00 28-04-17 to 06:00 28-04-17
NSW
Wind:5 Knots from 350°
Visibility:6.21 statute miles
600BKN Broken